CZFN/ZFN METAR and TAF weather

Enter ICAO airport designator
Station Type Date Time Source
CZFN METAR 2022/06/28 15:00 UTC NOAA

CZFN 281500Z 05004KT 350V060 20SM SCT180 SCT220 18/09 A2997 RMK AC3CC1 CI ASOCTD SLP153 DENSITY ALT 700FT


Station Type Date Time Source
CZFN Decoded METAR 2022/06/28 15:00 UTC NOAA

Fort Norman Airport, Canada (CZFN) 64-55N 125-34W
Jun 28, 2022 - 11:00 AM EDT / 2022.06.28 1500 UTC
Wind: from the NE (050 degrees) at 5 MPH (4 KT) (direction variable):0
Visibility: 20 mile(s):0
Sky conditions: partly cloudy
Temperature: 64 F (18 C)
Dew Point: 48 F (9 C)
Relative Humidity: 55%
Pressure (altimeter): 29.97 in. Hg (1014 hPa)
ob: CZFN 281500Z 05004KT 350V060 20SM SCT180 SCT220 18/09 A2997 RMK AC3CC1 CI ASOCTD SLP153 DENSITY ALT 700FT
cycle: 15

Station Type Date Time Source
CZFN TAF UTC NOAA

Error!

Example: see airport list